YM Venus — 9HCB8 — position and weather

sailwx.info

Track history (hours):
 
Tides and Currents Weather Stations Pressure Air Temp Water Temp Dewpoint Dewpoint Depression Visibility Wind Speed Wind Dir Waves Ship Positions

YM Venus

Last reported at 2015-Jan-27 21:29 UTC. Time now 2015-Jan-28 09:19 UTC.
Position N 37°13' E 000°40'.

Length 105 m; draft 4.9 m.

Type: Tanker. MMSI: 215826000.

Date/timePositionNaut miles runAvg speedWind from/ knotsBaromVisibWave heightAir tempDewpointWater temp
2015-Jan-27 21:29N 37°13' E 000°40'1213.1
2015-Jan-27 20:33N 37°11' E 000°25'1513.7
2015-Jan-27 19:26N 37°07' E 000°07'1213.6
2015-Jan-27 18:33N 37°02' W 000°07'1413.8
2015-Jan-27 17:31N 36°57' W 000°24'1313.9
2015-Jan-27 16:33N 36°53' W 000°40'1514.1
2015-Jan-27 15:29N 36°47' W 000°57'21613.6
2015-Jan-26 23:33N 35°55' W 005°18'1 1.3
2015-Jan-26 22:32N 35°54' W 005°19'0 0.0
2015-Jan-26 21:29N 35°54' W 005°19'0 0.0
2015-Jan-26 20:33N 35°54' W 005°19'2 2.4
2015-Jan-26 19:33N 35°56' W 005°18'1 0.7
2015-Jan-26 18:33N 35°56' W 005°19'1 1.0
2015-Jan-26 17:32N 35°55' W 005°20'0 0.0
2015-Jan-26 16:32N 35°55' W 005°20'0 0.0
2015-Jan-26 15:32N 35°55' W 005°20'0 0.0
2015-Jan-26 14:32N 35°55' W 005°20'0 0.0
2015-Jan-26 13:32N 35°55' W 005°20'0 0.0
2015-Jan-26 12:32N 35°55' W 005°20'0 0.0
2015-Jan-26 11:32N 35°55' W 005°20'0 0.0
2015-Jan-26 10:32N 35°55' W 005°20'0 0.0
2015-Jan-26 09:29N 35°55' W 005°20'0 0.0
2015-Jan-26 08:32N 35°55' W 005°20'1 0.9
2015-Jan-26 07:34N 35°56' W 005°20'19211.0
2015-Jan-25 14:11N 36°33' W 009°14'2011.0
2015-Jan-25 12:23N 36°46' W 009°32'1011.4
2015-Jan-25 11:33N 36°56' W 009°35'1211.5
2015-Jan-25 10:30N 37°07' W 009°38'1111.2
2015-Jan-25 09:33N 37°18' W 009°40'1111.3
2015-Jan-25 08:33N 37°29' W 009°43'1211.6
2015-Jan-25 07:31N 37°41' W 009°45'1213.0
2015-Jan-25 06:33N 37°53' W 009°49'1413.4
2015-Jan-25 05:33N 38°06' W 009°54'1313.1
2015-Jan-25 04:33N 38°19' W 009°58'1413.7
2015-Jan-25 03:34N 38°32' W 010°02'1413.9
2015-Jan-25 02:33N 38°46' W 010°05'1413.3
2015-Jan-25 01:28N 39°00' W 010°04'  
2015-Jan-22 20:30N 39°01' W 009°57'8 8.3
2015-Jan-22 19:33N 38°53' W 009°57'8 8.2
2015-Jan-22 18:33N 38°45' W 009°57'9 8.5
2015-Jan-22 17:32N 38°37' W 009°54'9 8.8
2015-Jan-22 16:33N 38°28' W 009°52'9 8.8
2015-Jan-22 15:33N 38°20' W 009°49'30 8.8
2015-Jan-22 12:08N 37°50' W 009°41'5 8.7
2015-Jan-22 11:33N 37°45' W 009°39'8 8.3
2015-Jan-22 10:33N 37°37' W 009°37'218 8.6
2015-Jan-21 09:12N 35°58' W 005°35'6 8.8
2015-Jan-21 08:28N 36°00' W 005°27'6 6.4
2015-Jan-21 07:33N 36°02' W 005°20'6 6.2
2015-Jan-21 06:33N 36°03' W 005°12'  
2015-Jan-18 01:32N 36°50' E 012°56'1212.8
2015-Jan-18 00:33N 36°46' E 013°11'3812.5
2015-Jan-17 21:33N 36°32' E 013°55'  
Track history (hours):
 
Tides and Currents Weather Stations Pressure Air Temp Water Temp Dewpoint Dewpoint Depression Visibility Wind Speed Wind Dir Waves Ship Positions

YM Venus

Last reported at 2015-Jan-27 21:29 UTC. Time now 2015-Jan-28 09:19 UTC.
Position N 37°13' E 000°40'.

Length 105 m; draft 4.9 m.

Type: Tanker. MMSI: 215826000.

Date/timePositionNaut miles runAvg speedWind from/ knotsBaromVisibWave heightAir tempDewpointWater temp
2015-Jan-27 21:29N 37°13' E 000°40'1213.1
2015-Jan-27 20:33N 37°11' E 000°25'1513.7
2015-Jan-27 19:26N 37°07' E 000°07'1213.6
2015-Jan-27 18:33N 37°02' W 000°07'1413.8
2015-Jan-27 17:31N 36°57' W 000°24'1313.9
2015-Jan-27 16:33N 36°53' W 000°40'1514.1
2015-Jan-27 15:29N 36°47' W 000°57'21613.6
2015-Jan-26 23:33N 35°55' W 005°18'1 1.3
2015-Jan-26 22:32N 35°54' W 005°19'0 0.0
2015-Jan-26 21:29N 35°54' W 005°19'0 0.0
2015-Jan-26 20:33N 35°54' W 005°19'2 2.4
2015-Jan-26 19:33N 35°56' W 005°18'1 0.7
2015-Jan-26 18:33N 35°56' W 005°19'1 1.0
2015-Jan-26 17:32N 35°55' W 005°20'0 0.0
2015-Jan-26 16:32N 35°55' W 005°20'0 0.0
2015-Jan-26 15:32N 35°55' W 005°20'0 0.0
2015-Jan-26 14:32N 35°55' W 005°20'0 0.0
2015-Jan-26 13:32N 35°55' W 005°20'0 0.0
2015-Jan-26 12:32N 35°55' W 005°20'0 0.0
2015-Jan-26 11:32N 35°55' W 005°20'0 0.0
2015-Jan-26 10:32N 35°55' W 005°20'0 0.0
2015-Jan-26 09:29N 35°55' W 005°20'0 0.0
2015-Jan-26 08:32N 35°55' W 005°20'1 0.9
2015-Jan-26 07:34N 35°56' W 005°20'19211.0
2015-Jan-25 14:11N 36°33' W 009°14'2011.0
2015-Jan-25 12:23N 36°46' W 009°32'1011.4
2015-Jan-25 11:33N 36°56' W 009°35'1211.5
2015-Jan-25 10:30N 37°07' W 009°38'1111.2
2015-Jan-25 09:33N 37°18' W 009°40'1111.3
2015-Jan-25 08:33N 37°29' W 009°43'1211.6
2015-Jan-25 07:31N 37°41' W 009°45'1213.0
2015-Jan-25 06:33N 37°53' W 009°49'1413.4
2015-Jan-25 05:33N 38°06' W 009°54'1313.1
2015-Jan-25 04:33N 38°19' W 009°58'1413.7
2015-Jan-25 03:34N 38°32' W 010°02'1413.9
2015-Jan-25 02:33N 38°46' W 010°05'1413.3
2015-Jan-25 01:28N 39°00' W 010°04'  
2015-Jan-22 20:30N 39°01' W 009°57'8 8.3
2015-Jan-22 19:33N 38°53' W 009°57'8 8.2
2015-Jan-22 18:33N 38°45' W 009°57'9 8.5
2015-Jan-22 17:32N 38°37' W 009°54'9 8.8
2015-Jan-22 16:33N 38°28' W 009°52'9 8.8
2015-Jan-22 15:33N 38°20' W 009°49'30 8.8
2015-Jan-22 12:08N 37°50' W 009°41'5 8.7
2015-Jan-22 11:33N 37°45' W 009°39'8 8.3
2015-Jan-22 10:33N 37°37' W 009°37'218 8.6
2015-Jan-21 09:12N 35°58' W 005°35'6 8.8
2015-Jan-21 08:28N 36°00' W 005°27'6 6.4
2015-Jan-21 07:33N 36°02' W 005°20'6 6.2
2015-Jan-21 06:33N 36°03' W 005°12'  
2015-Jan-18 01:32N 36°50' E 012°56'1212.8
2015-Jan-18 00:33N 36°46' E 013°11'3812.5
2015-Jan-17 21:33N 36°32' E 013°55'  

Dump ship's entire track history